Accueil
METAR-TAF:

METAR-TAF

Aéroports :

Wonderboom Airport

Pretoria, Afrique du Sud

latitude: 25-39S, longitude: 028-13E, altitude: 1248 m

Observation

Le bulletin a été fait il y a 52 minutes, à 13:00 UTC
Vent 5 kt de nord
Température 21°C
Humidité 53%
Pression 1023 hPa

METAR: FAWB 121300Z AUTO 01005KT //// // ////// 21/11 Q1023

Heure: 15:52 (13:52 UTC)

Prévision

Le bulletin a été fait il y a 4 heures et 52 minutes, à 09:00 UTC
Prévision valable du 12 à 10 UTC au 12 à 18 UTC
Vent 8 kt de nord/nord-est
Visibilité 10 km ou plus
Nuages fragmentés à une hauteur de 2000 ft
Probabilité 30% :
Temporairement
du 12 à 12 UTC au 12 à 18 UTC
Quelques nuages à une hauteur de 3500 ft, Cumulus congestus.

TAF: FAWB 120900Z 1210/1218 03008KT 9999 BKN020 TX20/1213Z TN15/1218Z PROB30 TEMPO 1212/1218 FEW035TCU

Observations et prévisions météorologiques de plus de 4000 aéroports (messages METAR et TAF).

Les stations disponibles sont représentées par des disques jaunes et rouges sur la carte.

Passer la souris dessus pour voir le nom de la station.

Cliquer dessus pour voir les observations et prévisions météorologiques.

Pour changer de carte: cliquez sur les boutons verts avec une croix noire pour zoomer, sur le bouton vert avec un tiret pour effectuer un zoom arrière, ou sur les flèches vertes pour les cartes adjacentes.


METAR-TAF: